Terminal Aerodrome Forecast
Issued by NWS

Current Version | Previous Version | Text Only | Print | Product List | Glossary On
Versions: 1 2 3 4 5 6 7 8 9 10 11 12 13 14 15 16
000
FTUS41 KBTV 182340
TAFMPV
TAF
KMPV 182340Z 1900/1924 16006KT 5SM BR OVC035
     FM190300 17006KT P6SM VCSH OVC015
     FM190600 18004KT 6SM BR OVC015
     FM191000 00000KT 6SM BR OVC020
     FM191200 00000KT P6SM OVC020
     FM191900 30004KT P6SM OVC025
     FM192100 31004KT P6SM OVC035=

USA.gov is the U.S. government's official web portal to all federal, state and local government web resources and services.